sensor_id;sensor_type;location;lat;lon;timestamp;temperature;humidity
8099;DHT22;4092;47.876;9.372;2023-04-06T00:01:12;2.10;98.40
8099;DHT22;4092;47.876;9.372;2023-04-06T00:03:39;2.10;98.50
8099;DHT22;4092;47.876;9.372;2023-04-06T00:06:06;2.10;98.50
8099;DHT22;4092;47.876;9.372;2023-04-06T00:08:33;2.20;98.30
8099;DHT22;4092;47.876;9.372;2023-04-06T00:11:03;2.20;98.20
8099;DHT22;4092;47.876;9.372;2023-04-06T00:13:30;2.10;98.10
8099;DHT22;4092;47.876;9.372;2023-04-06T00:15:57;2.00;98.70
8099;DHT22;4092;47.876;9.372;2023-04-06T00:18:25;2.00;98.80
8099;DHT22;4092;47.876;9.372;2023-04-06T00:20:52;1.90;98.50
8099;DHT22;4092;47.876;9.372;2023-04-06T00:23:19;1.90;99.20
8099;DHT22;4092;47.876;9.372;2023-04-06T00:25:46;1.90;99.00
8099;DHT22;4092;47.876;9.372;2023-04-06T00:28:15;1.90;98.70
8099;DHT22;4092;47.876;9.372;2023-04-06T00:30:42;1.80;98.50
8099;DHT22;4092;47.876;9.372;2023-04-06T00:33:10;1.80;98.60
8099;DHT22;4092;47.876;9.372;2023-04-06T00:35:37;1.70;98.50
8099;DHT22;4092;47.876;9.372;2023-04-06T00:38:04;1.70;98.50
8099;DHT22;4092;47.876;9.372;2023-04-06T00:40:31;1.70;98.30
8099;DHT22;4092;47.876;9.372;2023-04-06T00:43:00;1.70;98.40
8099;DHT22;4092;47.876;9.372;2023-04-06T00:45:29;1.70;98.70
8099;DHT22;4092;47.876;9.372;2023-04-06T00:47:56;1.60;99.10
8099;DHT22;4092;47.876;9.372;2023-04-06T00:50:23;1.60;98.30
8099;DHT22;4092;47.876;9.372;2023-04-06T00:52:51;1.70;99.50
8099;DHT22;4092;47.876;9.372;2023-04-06T00:55:18;1.60;99.40
8099;DHT22;4092;47.876;9.372;2023-04-06T00:57:45;1.60;99.90
8099;DHT22;4092;47.876;9.372;2023-04-06T01:00:14;1.60;99.90
8099;DHT22;4092;47.876;9.372;2023-04-06T01:02:43;1.60;99.90
8099;DHT22;4092;47.876;9.372;2023-04-06T01:05:11;1.60;99.90
8099;DHT22;4092;47.876;9.372;2023-04-06T01:07:39;1.60;99.90
8099;DHT22;4092;47.876;9.372;2023-04-06T01:10:06;1.60;99.90
8099;DHT22;4092;47.876;9.372;2023-04-06T01:12:34;1.60;99.90
8099;DHT22;4092;47.876;9.372;2023-04-06T01:15:01;1.70;99.90
8099;DHT22;4092;47.876;9.372;2023-04-06T01:17:29;1.70;99.90
8099;DHT22;4092;47.876;9.372;2023-04-06T01:19:57;1.70;99.90
8099;DHT22;4092;47.876;9.372;2023-04-06T01:22:26;1.70;99.90
8099;DHT22;4092;47.876;9.372;2023-04-06T01:24:53;1.60;99.90
8099;DHT22;4092;47.876;9.372;2023-04-06T01:27:20;1.60;99.90
8099;DHT22;4092;47.876;9.372;2023-04-06T01:29:47;1.60;99.90
8099;DHT22;4092;47.876;9.372;2023-04-06T01:32:14;1.70;99.90
8099;DHT22;4092;47.876;9.372;2023-04-06T01:34:41;1.60;99.90
8099;DHT22;4092;47.876;9.372;2023-04-06T01:37:08;1.60;99.90
8099;DHT22;4092;47.876;9.372;2023-04-06T01:39:37;1.50;99.90
8099;DHT22;4092;47.876;9.372;2023-04-06T01:42:04;1.40;99.90
8099;DHT22;4092;47.876;9.372;2023-04-06T01:44:31;1.40;99.90
8099;DHT22;4092;47.876;9.372;2023-04-06T01:46:59;1.50;99.90
8099;DHT22;4092;47.876;9.372;2023-04-06T01:49:26;1.50;99.90
8099;DHT22;4092;47.876;9.372;2023-04-06T01:51:53;1.40;99.90
8099;DHT22;4092;47.876;9.372;2023-04-06T01:54:20;1.40;99.90
8099;DHT22;4092;47.876;9.372;2023-04-06T01:56:49;1.40;99.90
8099;DHT22;4092;47.876;9.372;2023-04-06T01:59:18;1.30;99.90
8099;DHT22;4092;47.876;9.372;2023-04-06T02:01:45;1.30;99.90
8099;DHT22;4092;47.876;9.372;2023-04-06T02:04:12;1.30;99.70
8099;DHT22;4092;47.876;9.372;2023-04-06T02:06:40;1.30;99.60
8099;DHT22;4092;47.876;9.372;2023-04-06T02:09:07;1.30;99.50
8099;DHT22;4092;47.876;9.372;2023-04-06T02:11:34;1.30;99.50
8099;DHT22;4092;47.876;9.372;2023-04-06T02:14:03;1.20;99.50
8099;DHT22;4092;47.876;9.372;2023-04-06T02:16:30;1.20;99.50
8099;DHT22;4092;47.876;9.372;2023-04-06T02:18:57;1.20;99.50
8099;DHT22;4092;47.876;9.372;2023-04-06T02:21:25;1.20;99.50
8099;DHT22;4092;47.876;9.372;2023-04-06T02:23:52;1.10;99.70
8099;DHT22;4092;47.876;9.372;2023-04-06T02:26:19;0.90;99.40
8099;DHT22;4092;47.876;9.372;2023-04-06T02:28:46;0.90;99.60
8099;DHT22;4092;47.876;9.372;2023-04-06T02:31:16;1.00;99.70
8099;DHT22;4092;47.876;9.372;2023-04-06T02:33:43;0.90;99.60
8099;DHT22;4092;47.876;9.372;2023-04-06T02:36:10;0.90;99.60
8099;DHT22;4092;47.876;9.372;2023-04-06T02:38:37;0.80;99.60
8099;DHT22;4092;47.876;9.372;2023-04-06T02:41:04;0.80;99.50
8099;DHT22;4092;47.876;9.372;2023-04-06T02:43:32;0.90;99.70
8099;DHT22;4092;47.876;9.372;2023-04-06T02:45:59;0.80;99.80
8099;DHT22;4092;47.876;9.372;2023-04-06T02:48:27;0.80;99.90
8099;DHT22;4092;47.876;9.372;2023-04-06T02:50:55;0.80;99.80
8099;DHT22;4092;47.876;9.372;2023-04-06T02:53:22;0.80;99.90
8099;DHT22;4092;47.876;9.372;2023-04-06T02:55:49;0.70;99.90
8099;DHT22;4092;47.876;9.372;2023-04-06T02:58:16;0.70;99.90
8099;DHT22;4092;47.876;9.372;2023-04-06T03:00:43;0.80;99.90
8099;DHT22;4092;47.876;9.372;2023-04-06T03:03:11;0.70;99.90
8099;DHT22;4092;47.876;9.372;2023-04-06T03:05:39;0.70;99.90
8099;DHT22;4092;47.876;9.372;2023-04-06T03:08:06;0.60;99.90
8099;DHT22;4092;47.876;9.372;2023-04-06T03:10:33;0.60;99.90
8099;DHT22;4092;47.876;9.372;2023-04-06T03:13:00;0.70;99.90
8099;DHT22;4092;47.876;9.372;2023-04-06T03:15:30;0.60;99.90
8099;DHT22;4092;47.876;9.372;2023-04-06T03:17:58;0.60;99.90
8099;DHT22;4092;47.876;9.372;2023-04-06T03:20:25;0.50;99.90
8099;DHT22;4092;47.876;9.372;2023-04-06T03:22:53;0.50;99.90
8099;DHT22;4092;47.876;9.372;2023-04-06T03:25:21;0.50;99.90
8099;DHT22;4092;47.876;9.372;2023-04-06T03:27:48;0.50;99.90
8099;DHT22;4092;47.876;9.372;2023-04-06T03:30:15;0.50;99.90
8099;DHT22;4092;47.876;9.372;2023-04-06T03:32:43;0.40;99.90
8099;DHT22;4092;47.876;9.372;2023-04-06T03:35:10;0.40;99.90
8099;DHT22;4092;47.876;9.372;2023-04-06T03:37:37;0.40;99.90
8099;DHT22;4092;47.876;9.372;2023-04-06T03:40:07;0.30;99.90
8099;DHT22;4092;47.876;9.372;2023-04-06T03:42:34;0.30;99.90
8099;DHT22;4092;47.876;9.372;2023-04-06T03:45:01;0.30;99.90
8099;DHT22;4092;47.876;9.372;2023-04-06T03:47:29;0.20;99.90
8099;DHT22;4092;47.876;9.372;2023-04-06T03:49:56;0.30;99.90
8099;DHT22;4092;47.876;9.372;2023-04-06T03:52:23;0.30;99.90
8099;DHT22;4092;47.876;9.372;2023-04-06T03:54:50;0.40;99.90
8099;DHT22;4092;47.876;9.372;2023-04-06T03:57:19;0.30;99.90
8099;DHT22;4092;47.876;9.372;2023-04-06T03:59:46;0.30;99.90
8099;DHT22;4092;47.876;9.372;2023-04-06T04:02:13;0.20;99.90
8099;DHT22;4092;47.876;9.372;2023-04-06T04:04:40;0.20;99.90
8099;DHT22;4092;47.876;9.372;2023-04-06T04:07:07;0.20;99.90
8099;DHT22;4092;47.876;9.372;2023-04-06T04:09:34;0.20;99.90
8099;DHT22;4092;47.876;9.372;2023-04-06T04:12:02;0.20;99.90
8099;DHT22;4092;47.876;9.372;2023-04-06T04:14:30;0.20;99.90
8099;DHT22;4092;47.876;9.372;2023-04-06T04:16:58;0.20;99.90
8099;DHT22;4092;47.876;9.372;2023-04-06T04:19:25;0.20;99.90
8099;DHT22;4092;47.876;9.372;2023-04-06T04:21:52;0.20;99.90
8099;DHT22;4092;47.876;9.372;2023-04-06T04:24:19;0.20;99.90
8099;DHT22;4092;47.876;9.372;2023-04-06T04:26:46;0.10;99.90
8099;DHT22;4092;47.876;9.372;2023-04-06T04:29:13;0.10;99.90
8099;DHT22;4092;47.876;9.372;2023-04-06T04:31:42;0.10;99.90
8099;DHT22;4092;47.876;9.372;2023-04-06T04:34:09;0.10;99.90
8099;DHT22;4092;47.876;9.372;2023-04-06T04:36:36;0.10;99.90
8099;DHT22;4092;47.876;9.372;2023-04-06T04:39:03;0.00;99.90
8099;DHT22;4092;47.876;9.372;2023-04-06T04:41:30;0.00;99.90
8099;DHT22;4092;47.876;9.372;2023-04-06T04:43:57;0.00;99.90
8099;DHT22;4092;47.876;9.372;2023-04-06T04:46:25;0.00;99.90
8099;DHT22;4092;47.876;9.372;2023-04-06T04:48:53;0.00;99.90
8099;DHT22;4092;47.876;9.372;2023-04-06T04:51:20;0.10;99.90
8099;DHT22;4092;47.876;9.372;2023-04-06T04:53:47;0.10;99.90
8099;DHT22;4092;47.876;9.372;2023-04-06T04:56:14;0.10;99.90
8099;DHT22;4092;47.876;9.372;2023-04-06T04:58:42;0.10;99.90
8099;DHT22;4092;47.876;9.372;2023-04-06T05:01:09;0.20;99.90
8099;DHT22;4092;47.876;9.372;2023-04-06T05:03:36;0.20;99.90
8099;DHT22;4092;47.876;9.372;2023-04-06T05:06:06;0.20;99.90
8099;DHT22;4092;47.876;9.372;2023-04-06T05:08:33;0.20;99.90
8099;DHT22;4092;47.876;9.372;2023-04-06T05:11:01;0.20;99.90
8099;DHT22;4092;47.876;9.372;2023-04-06T05:13:29;0.30;99.90
8099;DHT22;4092;47.876;9.372;2023-04-06T05:15:57;0.30;99.90
8099;DHT22;4092;47.876;9.372;2023-04-06T05:18:24;0.20;99.90
8099;DHT22;4092;47.876;9.372;2023-04-06T05:20:51;0.30;99.90
8099;DHT22;4092;47.876;9.372;2023-04-06T05:23:20;0.30;99.90
8099;DHT22;4092;47.876;9.372;2023-04-06T05:25:47;0.30;99.90
8099;DHT22;4092;47.876;9.372;2023-04-06T05:28:16;0.40;99.90
8099;DHT22;4092;47.876;9.372;2023-04-06T05:30:43;0.40;99.90
8099;DHT22;4092;47.876;9.372;2023-04-06T05:33:11;0.40;99.90
8099;DHT22;4092;47.876;9.372;2023-04-06T05:35:38;0.50;99.90
8099;DHT22;4092;47.876;9.372;2023-04-06T05:38:08;0.60;99.90
8099;DHT22;4092;47.876;9.372;2023-04-06T05:40:37;0.60;99.90
8099;DHT22;4092;47.876;9.372;2023-04-06T05:43:06;0.70;99.90
8099;DHT22;4092;47.876;9.372;2023-04-06T05:45:34;0.80;99.90
8099;DHT22;4092;47.876;9.372;2023-04-06T05:48:01;0.90;99.90
8099;DHT22;4092;47.876;9.372;2023-04-06T05:50:28;0.90;99.90
8099;DHT22;4092;47.876;9.372;2023-04-06T05:52:55;1.00;99.90
8099;DHT22;4092;47.876;9.372;2023-04-06T05:55:23;1.00;99.90
8099;DHT22;4092;47.876;9.372;2023-04-06T05:57:51;1.10;99.90
8099;DHT22;4092;47.876;9.372;2023-04-06T06:00:18;1.10;99.90
8099;DHT22;4092;47.876;9.372;2023-04-06T06:02:46;1.20;99.90
8099;DHT22;4092;47.876;9.372;2023-04-06T06:05:13;1.30;99.90
8099;DHT22;4092;47.876;9.372;2023-04-06T06:07:40;1.40;99.90
8099;DHT22;4092;47.876;9.372;2023-04-06T06:10:08;1.60;99.90
8099;DHT22;4092;47.876;9.372;2023-04-06T06:12:36;1.70;99.90
8099;DHT22;4092;47.876;9.372;2023-04-06T06:15:05;1.80;99.90
8099;DHT22;4092;47.876;9.372;2023-04-06T06:17:33;2.00;99.90
8099;DHT22;4092;47.876;9.372;2023-04-06T06:20:00;2.10;99.90
8099;DHT22;4092;47.876;9.372;2023-04-06T06:22:27;2.10;99.90
8099;DHT22;4092;47.876;9.372;2023-04-06T06:24:55;2.20;99.90
8099;DHT22;4092;47.876;9.372;2023-04-06T06:27:22;2.30;99.90
8099;DHT22;4092;47.876;9.372;2023-04-06T06:29:49;2.40;99.90
8099;DHT22;4092;47.876;9.372;2023-04-06T06:32:18;2.40;99.90
8099;DHT22;4092;47.876;9.372;2023-04-06T06:34:45;2.50;99.90
8099;DHT22;4092;47.876;9.372;2023-04-06T06:37:12;2.60;99.90
8099;DHT22;4092;47.876;9.372;2023-04-06T06:39:39;2.60;99.90
8099;DHT22;4092;47.876;9.372;2023-04-06T06:42:06;2.70;99.90
8099;DHT22;4092;47.876;9.372;2023-04-06T06:44:34;2.80;99.90
8099;DHT22;4092;47.876;9.372;2023-04-06T06:47:01;2.90;99.90
8099;DHT22;4092;47.876;9.372;2023-04-06T06:49:29;2.90;99.90
8099;DHT22;4092;47.876;9.372;2023-04-06T06:51:56;3.10;99.90
8099;DHT22;4092;47.876;9.372;2023-04-06T06:54:24;3.10;99.90
8099;DHT22;4092;47.876;9.372;2023-04-06T06:56:51;3.20;99.90
8099;DHT22;4092;47.876;9.372;2023-04-06T06:59:18;3.30;99.90
8099;DHT22;4092;47.876;9.372;2023-04-06T07:01:46;3.40;99.90
8099;DHT22;4092;47.876;9.372;2023-04-06T07:04:13;3.60;99.90
8099;DHT22;4092;47.876;9.372;2023-04-06T07:06:41;3.60;99.90
8099;DHT22;4092;47.876;9.372;2023-04-06T07:09:09;3.80;99.90
8099;DHT22;4092;47.876;9.372;2023-04-06T07:11:36;3.80;99.90
8099;DHT22;4092;47.876;9.372;2023-04-06T07:14:03;3.90;99.90
8099;DHT22;4092;47.876;9.372;2023-04-06T07:16:30;3.90;99.60
8099;DHT22;4092;47.876;9.372;2023-04-06T07:18:57;4.00;99.90
8099;DHT22;4092;47.876;9.372;2023-04-06T07:21:25;4.10;99.90
8099;DHT22;4092;47.876;9.372;2023-04-06T07:23:53;4.20;99.50
8099;DHT22;4092;47.876;9.372;2023-04-06T07:26:20;4.30;99.10
8099;DHT22;4092;47.876;9.372;2023-04-06T07:28:47;4.40;99.30
8099;DHT22;4092;47.876;9.372;2023-04-06T07:31:15;4.50;99.20
8099;DHT22;4092;47.876;9.372;2023-04-06T07:33:45;4.70;99.50
8099;DHT22;4092;47.876;9.372;2023-04-06T07:36:12;4.80;99.30
8099;DHT22;4092;47.876;9.372;2023-04-06T07:38:39;4.90;98.40
8099;DHT22;4092;47.876;9.372;2023-04-06T07:41:08;4.90;98.70
8099;DHT22;4092;47.876;9.372;2023-04-06T07:43:35;4.90;97.70
8099;DHT22;4092;47.876;9.372;2023-04-06T07:46:02;4.90;97.90
8099;DHT22;4092;47.876;9.372;2023-04-06T07:48:29;5.00;98.40
8099;DHT22;4092;47.876;9.372;2023-04-06T07:51:01;5.10;98.10
8099;DHT22;4092;47.876;9.372;2023-04-06T07:53:28;5.10;97.40
8099;DHT22;4092;47.876;9.372;2023-04-06T07:55:56;5.20;97.80
8099;DHT22;4092;47.876;9.372;2023-04-06T07:58:24;5.30;98.30
8099;DHT22;4092;47.876;9.372;2023-04-06T08:00:52;5.40;97.50
8099;DHT22;4092;47.876;9.372;2023-04-06T08:03:20;5.50;98.10
8099;DHT22;4092;47.876;9.372;2023-04-06T08:05:51;5.50;96.90
8099;DHT22;4092;47.876;9.372;2023-04-06T08:08:18;5.70;96.20
8099;DHT22;4092;47.876;9.372;2023-04-06T08:10:46;5.60;94.30
8099;DHT22;4092;47.876;9.372;2023-04-06T08:13:14;5.60;94.20
8099;DHT22;4092;47.876;9.372;2023-04-06T08:15:42;5.70;94.80
8099;DHT22;4092;47.876;9.372;2023-04-06T08:18:09;5.90;95.80
8099;DHT22;4092;47.876;9.372;2023-04-06T08:20:36;6.00;95.90
8099;DHT22;4092;47.876;9.372;2023-04-06T08:23:03;6.10;95.30
8099;DHT22;4092;47.876;9.372;2023-04-06T08:25:33;6.20;94.70
8099;DHT22;4092;47.876;9.372;2023-04-06T08:28:01;6.20;94.30
8099;DHT22;4092;47.876;9.372;2023-04-06T08:30:28;6.20;94.70
8099;DHT22;4092;47.876;9.372;2023-04-06T08:32:57;6.00;93.90
8099;DHT22;4092;47.876;9.372;2023-04-06T08:35:24;5.90;94.10
8099;DHT22;4092;47.876;9.372;2023-04-06T08:37:51;5.90;93.40
8099;DHT22;4092;47.876;9.372;2023-04-06T08:40:18;6.00;93.90
8099;DHT22;4092;47.876;9.372;2023-04-06T08:42:50;6.00;94.50
8099;DHT22;4092;47.876;9.372;2023-04-06T08:45:19;6.20;95.70
8099;DHT22;4092;47.876;9.372;2023-04-06T08:47:47;6.30;94.60
8099;DHT22;4092;47.876;9.372;2023-04-06T08:50:16;6.40;94.40
8099;DHT22;4092;47.876;9.372;2023-04-06T08:52:44;6.40;94.20
8099;DHT22;4092;47.876;9.372;2023-04-06T08:55:13;6.50;94.80
8099;DHT22;4092;47.876;9.372;2023-04-06T08:57:41;6.60;94.20
8099;DHT22;4092;47.876;9.372;2023-04-06T09:00:11;6.60;95.80
8099;DHT22;4092;47.876;9.372;2023-04-06T09:02:39;6.70;94.10
8099;DHT22;4092;47.876;9.372;2023-04-06T09:05:08;6.90;96.20
8099;DHT22;4092;47.876;9.372;2023-04-06T09:07:37;7.00;94.20
8099;DHT22;4092;47.876;9.372;2023-04-06T09:10:05;6.80;94.20
8099;DHT22;4092;47.876;9.372;2023-04-06T09:12:33;6.80;93.50
8099;DHT22;4092;47.876;9.372;2023-04-06T09:15:01;6.90;93.50
8099;DHT22;4092;47.876;9.372;2023-04-06T09:17:29;6.90;95.00
8099;DHT22;4092;47.876;9.372;2023-04-06T09:19:58;7.00;94.60
8099;DHT22;4092;47.876;9.372;2023-04-06T09:22:34;6.90;95.00
8099;DHT22;4092;47.876;9.372;2023-04-06T09:25:03;7.10;95.80
8099;DHT22;4092;47.876;9.372;2023-04-06T09:27:32;7.00;93.60
8099;DHT22;4092;47.876;9.372;2023-04-06T09:30:06;7.20;95.80
8099;DHT22;4092;47.876;9.372;2023-04-06T09:32:47;7.30;93.90
8099;DHT22;4092;47.876;9.372;2023-04-06T09:35:15;7.20;93.70
8099;DHT22;4092;47.876;9.372;2023-04-06T09:37:42;7.40;93.80
8099;DHT22;4092;47.876;9.372;2023-04-06T09:40:12;7.60;94.00
8099;DHT22;4092;47.876;9.372;2023-04-06T09:42:41;7.60;94.30
8099;DHT22;4092;47.876;9.372;2023-04-06T09:45:09;7.80;92.50
8099;DHT22;4092;47.876;9.372;2023-04-06T09:47:37;7.60;90.70
8099;DHT22;4092;47.876;9.372;2023-04-06T09:50:07;7.60;91.60
8099;DHT22;4092;47.876;9.372;2023-04-06T09:52:38;7.60;91.20
8099;DHT22;4092;47.876;9.372;2023-04-06T09:55:08;7.70;92.20
8099;DHT22;4092;47.876;9.372;2023-04-06T09:57:41;7.70;91.50
8099;DHT22;4092;47.876;9.372;2023-04-06T10:00:11;7.50;91.00
8099;DHT22;4092;47.876;9.372;2023-04-06T10:02:48;7.40;90.60
8099;DHT22;4092;47.876;9.372;2023-04-06T10:05:21;7.60;91.30
8099;DHT22;4092;47.876;9.372;2023-04-06T10:07:51;7.70;90.80
8099;DHT22;4092;47.876;9.372;2023-04-06T10:10:23;7.90;91.00
8099;DHT22;4092;47.876;9.372;2023-04-06T10:12:53;7.90;92.70
8099;DHT22;4092;47.876;9.372;2023-04-06T10:15:21;8.10;92.00
8099;DHT22;4092;47.876;9.372;2023-04-06T10:17:48;8.20;93.10
8099;DHT22;4092;47.876;9.372;2023-04-06T10:20:20;8.30;91.50
8099;DHT22;4092;47.876;9.372;2023-04-06T10:22:53;8.40;94.10
8099;DHT22;4092;47.876;9.372;2023-04-06T10:25:29;8.60;91.20
8099;DHT22;4092;47.876;9.372;2023-04-06T10:28:01;8.70;90.50
8099;DHT22;4092;47.876;9.372;2023-04-06T10:30:32;8.70;90.80
8099;DHT22;4092;47.876;9.372;2023-04-06T10:32:59;8.70;91.00
8099;DHT22;4092;47.876;9.372;2023-04-06T10:35:36;8.80;91.20
8099;DHT22;4092;47.876;9.372;2023-04-06T10:38:05;8.70;90.30
8099;DHT22;4092;47.876;9.372;2023-04-06T10:40:35;8.50;90.30
8099;DHT22;4092;47.876;9.372;2023-04-06T10:43:11;8.70;91.30
8099;DHT22;4092;47.876;9.372;2023-04-06T10:45:39;8.70;91.50
8099;DHT22;4092;47.876;9.372;2023-04-06T10:48:14;8.50;87.40
8099;DHT22;4092;47.876;9.372;2023-04-06T10:50:43;8.50;88.80
8099;DHT22;4092;47.876;9.372;2023-04-06T10:53:10;8.50;88.70
8099;DHT22;4092;47.876;9.372;2023-04-06T10:55:39;8.90;90.50
8099;DHT22;4092;47.876;9.372;2023-04-06T10:58:07;9.00;86.40
8099;DHT22;4092;47.876;9.372;2023-04-06T11:00:44;9.00;89.10
8099;DHT22;4092;47.876;9.372;2023-04-06T11:03:11;9.00;86.00
8099;DHT22;4092;47.876;9.372;2023-04-06T11:05:38;9.00;77.90
8099;DHT22;4092;47.876;9.372;2023-04-06T11:08:10;9.00;82.60
8099;DHT22;4092;47.876;9.372;2023-04-06T11:10:37;9.00;84.50
8099;DHT22;4092;47.876;9.372;2023-04-06T11:13:04;9.00;82.40
8099;DHT22;4092;47.876;9.372;2023-04-06T11:15:35;9.10;82.40
8099;DHT22;4092;47.876;9.372;2023-04-06T11:18:03;9.00;78.10
8099;DHT22;4092;47.876;9.372;2023-04-06T11:20:31;9.10;81.80
8099;DHT22;4092;47.876;9.372;2023-04-06T11:22:58;9.30;85.30
8099;DHT22;4092;47.876;9.372;2023-04-06T11:25:26;9.50;84.10
8099;DHT22;4092;47.876;9.372;2023-04-06T11:27:53;9.60;88.50
8099;DHT22;4092;47.876;9.372;2023-04-06T11:30:20;9.60;86.80
8099;DHT22;4092;47.876;9.372;2023-04-06T11:32:49;9.90;86.20
8099;DHT22;4092;47.876;9.372;2023-04-06T11:35:20;10.00;80.10
8099;DHT22;4092;47.876;9.372;2023-04-06T11:37:48;10.10;87.20
8099;DHT22;4092;47.876;9.372;2023-04-06T11:40:15;10.20;80.50
8099;DHT22;4092;47.876;9.372;2023-04-06T11:42:52;10.20;77.70
8099;DHT22;4092;47.876;9.372;2023-04-06T11:45:19;10.10;76.90
8099;DHT22;4092;47.876;9.372;2023-04-06T11:47:57;10.10;80.30
8099;DHT22;4092;47.876;9.372;2023-04-06T11:50:25;10.10;79.00
8099;DHT22;4092;47.876;9.372;2023-04-06T11:52:59;10.20;77.20
8099;DHT22;4092;47.876;9.372;2023-04-06T11:55:27;10.40;78.30
8099;DHT22;4092;47.876;9.372;2023-04-06T11:57:54;10.70;78.30
8099;DHT22;4092;47.876;9.372;2023-04-06T12:00:21;10.70;78.10
8099;DHT22;4092;47.876;9.372;2023-04-06T12:02:49;10.60;73.60
8099;DHT22;4092;47.876;9.372;2023-04-06T12:05:18;10.50;74.70
8099;DHT22;4092;47.876;9.372;2023-04-06T12:07:45;10.60;75.20
8099;DHT22;4092;47.876;9.372;2023-04-06T12:10:12;10.90;78.70
8099;DHT22;4092;47.876;9.372;2023-04-06T12:12:39;11.10;79.50
8099;DHT22;4092;47.876;9.372;2023-04-06T12:15:07;10.90;76.50
8099;DHT22;4092;47.876;9.372;2023-04-06T12:17:35;10.60;74.70
8099;DHT22;4092;47.876;9.372;2023-04-06T12:20:02;10.80;73.90
8099;DHT22;4092;47.876;9.372;2023-04-06T12:22:31;10.90;74.60
8099;DHT22;4092;47.876;9.372;2023-04-06T12:24:58;10.90;75.20
8099;DHT22;4092;47.876;9.372;2023-04-06T12:27:26;11.10;75.00
8099;DHT22;4092;47.876;9.372;2023-04-06T12:29:53;11.10;82.80
8099;DHT22;4092;47.876;9.372;2023-04-06T12:32:21;11.10;75.00
8099;DHT22;4092;47.876;9.372;2023-04-06T12:34:48;11.10;77.90
8099;DHT22;4092;47.876;9.372;2023-04-06T12:37:15;11.60;76.80
8099;DHT22;4092;47.876;9.372;2023-04-06T12:39:44;11.80;78.80
8099;DHT22;4092;47.876;9.372;2023-04-06T12:42:11;11.80;73.30
8099;DHT22;4092;47.876;9.372;2023-04-06T12:44:39;11.60;72.10
8099;DHT22;4092;47.876;9.372;2023-04-06T12:47:08;11.50;72.40
8099;DHT22;4092;47.876;9.372;2023-04-06T12:49:36;11.90;74.40
8099;DHT22;4092;47.876;9.372;2023-04-06T12:52:03;12.00;70.20
8099;DHT22;4092;47.876;9.372;2023-04-06T12:54:31;12.30;74.10
8099;DHT22;4092;47.876;9.372;2023-04-06T12:56:59;12.90;76.00
8099;DHT22;4092;47.876;9.372;2023-04-06T12:59:26;13.10;73.90
8099;DHT22;4092;47.876;9.372;2023-04-06T13:02:00;13.00;70.00
8099;DHT22;4092;47.876;9.372;2023-04-06T13:04:27;13.10;70.00
8099;DHT22;4092;47.876;9.372;2023-04-06T13:06:54;13.00;68.70
8099;DHT22;4092;47.876;9.372;2023-04-06T13:09:28;13.10;69.50
8099;DHT22;4092;47.876;9.372;2023-04-06T13:11:57;13.00;69.10
8099;DHT22;4092;47.876;9.372;2023-04-06T13:14:25;13.00;70.90
8099;DHT22;4092;47.876;9.372;2023-04-06T13:16:52;13.40;66.80
8099;DHT22;4092;47.876;9.372;2023-04-06T13:19:20;13.70;69.70
8099;DHT22;4092;47.876;9.372;2023-04-06T13:21:47;13.80;66.80
8099;DHT22;4092;47.876;9.372;2023-04-06T13:24:14;13.50;64.00
8099;DHT22;4092;47.876;9.372;2023-04-06T13:26:41;13.40;65.90
8099;DHT22;4092;47.876;9.372;2023-04-06T13:29:08;13.40;64.90
8099;DHT22;4092;47.876;9.372;2023-04-06T13:31:37;13.50;63.70
8099;DHT22;4092;47.876;9.372;2023-04-06T13:34:04;13.80;64.20
8099;DHT22;4092;47.876;9.372;2023-04-06T13:36:32;13.80;63.20
8099;DHT22;4092;47.876;9.372;2023-04-06T13:38:59;13.80;61.80
8099;DHT22;4092;47.876;9.372;2023-04-06T13:41:26;13.70;64.50
8099;DHT22;4092;47.876;9.372;2023-04-06T13:43:53;14.00;61.70
8099;DHT22;4092;47.876;9.372;2023-04-06T13:46:21;14.30;60.30
8099;DHT22;4092;47.876;9.372;2023-04-06T13:48:50;14.60;63.10
8099;DHT22;4092;47.876;9.372;2023-04-06T13:51:18;14.40;61.20
8099;DHT22;4092;47.876;9.372;2023-04-06T13:53:45;14.20;60.50
8099;DHT22;4092;47.876;9.372;2023-04-06T13:56:12;14.20;61.80
8099;DHT22;4092;47.876;9.372;2023-04-06T13:58:39;14.60;60.30
8099;DHT22;4092;47.876;9.372;2023-04-06T14:01:07;15.10;59.50
8099;DHT22;4092;47.876;9.372;2023-04-06T14:03:35;14.90;59.80
8099;DHT22;4092;47.876;9.372;2023-04-06T14:06:11;15.30;59.10
8099;DHT22;4092;47.876;9.372;2023-04-06T14:08:38;15.80;58.60
8099;DHT22;4092;47.876;9.372;2023-04-06T14:11:05;15.30;58.30
8099;DHT22;4092;47.876;9.372;2023-04-06T14:13:33;14.70;60.80
8099;DHT22;4092;47.876;9.372;2023-04-06T14:16:00;14.10;59.50
8099;DHT22;4092;47.876;9.372;2023-04-06T14:18:27;14.00;62.50
8099;DHT22;4092;47.876;9.372;2023-04-06T14:20:57;13.50;60.20
8099;DHT22;4092;47.876;9.372;2023-04-06T14:23:26;13.10;61.90
8099;DHT22;4092;47.876;9.372;2023-04-06T14:26:01;13.10;64.50
8099;DHT22;4092;47.876;9.372;2023-04-06T14:28:29;12.80;63.70
8099;DHT22;4092;47.876;9.372;2023-04-06T14:30:58;12.80;64.00
8099;DHT22;4092;47.876;9.372;2023-04-06T14:33:25;12.50;62.90
8099;DHT22;4092;47.876;9.372;2023-04-06T14:35:52;12.20;63.10
8099;DHT22;4092;47.876;9.372;2023-04-06T14:38:20;12.10;66.50
8099;DHT22;4092;47.876;9.372;2023-04-06T14:40:48;12.30;65.90
8099;DHT22;4092;47.876;9.372;2023-04-06T14:43:15;12.50;67.40
8099;DHT22;4092;47.876;9.372;2023-04-06T14:45:42;12.70;66.00
8099;DHT22;4092;47.876;9.372;2023-04-06T14:48:10;12.30;65.20
8099;DHT22;4092;47.876;9.372;2023-04-06T14:50:38;12.20;66.80
8099;DHT22;4092;47.876;9.372;2023-04-06T14:53:06;12.20;66.00
8099;DHT22;4092;47.876;9.372;2023-04-06T14:55:33;12.00;65.10
8099;DHT22;4092;47.876;9.372;2023-04-06T14:58:07;11.50;67.00
8099;DHT22;4092;47.876;9.372;2023-04-06T15:00:34;11.30;68.80
8099;DHT22;4092;47.876;9.372;2023-04-06T15:03:01;11.10;69.70
8099;DHT22;4092;47.876;9.372;2023-04-06T15:05:28;10.90;69.50
8099;DHT22;4092;47.876;9.372;2023-04-06T15:07:56;10.90;69.30
8099;DHT22;4092;47.876;9.372;2023-04-06T15:10:23;10.70;70.50
8099;DHT22;4092;47.876;9.372;2023-04-06T15:12:50;10.70;70.60
8099;DHT22;4092;47.876;9.372;2023-04-06T15:15:19;10.70;70.10
8099;DHT22;4092;47.876;9.372;2023-04-06T15:17:46;10.70;70.70
8099;DHT22;4092;47.876;9.372;2023-04-06T15:20:13;10.80;70.50
8099;DHT22;4092;47.876;9.372;2023-04-06T15:22:40;10.70;70.80
8099;DHT22;4092;47.876;9.372;2023-04-06T15:25:07;10.60;70.90
8099;DHT22;4092;47.876;9.372;2023-04-06T15:27:34;10.60;71.10
8099;DHT22;4092;47.876;9.372;2023-04-06T15:30:01;10.60;71.00
8099;DHT22;4092;47.876;9.372;2023-04-06T15:32:29;10.60;71.70
8099;DHT22;4092;47.876;9.372;2023-04-06T15:34:57;10.50;71.00
8099;DHT22;4092;47.876;9.372;2023-04-06T15:37:25;10.30;71.00
8099;DHT22;4092;47.876;9.372;2023-04-06T15:39:52;10.10;71.70
8099;DHT22;4092;47.876;9.372;2023-04-06T15:42:19;10.00;72.40
8099;DHT22;4092;47.876;9.372;2023-04-06T15:44:46;9.80;74.20
8099;DHT22;4092;47.876;9.372;2023-04-06T15:47:13;9.80;74.10
8099;DHT22;4092;47.876;9.372;2023-04-06T15:49:42;9.90;75.50
8099;DHT22;4092;47.876;9.372;2023-04-06T15:52:09;9.90;75.30
8099;DHT22;4092;47.876;9.372;2023-04-06T15:54:36;10.00;73.80
8099;DHT22;4092;47.876;9.372;2023-04-06T15:57:06;10.20;73.70
8099;DHT22;4092;47.876;9.372;2023-04-06T15:59:33;10.60;74.50
8099;DHT22;4092;47.876;9.372;2023-04-06T16:02:00;10.80;74.50
8099;DHT22;4092;47.876;9.372;2023-04-06T16:04:27;10.90;73.10
8099;DHT22;4092;47.876;9.372;2023-04-06T16:06:55;10.80;72.60
8099;DHT22;4092;47.876;9.372;2023-04-06T16:09:22;10.70;72.60
8099;DHT22;4092;47.876;9.372;2023-04-06T16:11:49;10.50;72.50
8099;DHT22;4092;47.876;9.372;2023-04-06T16:14:16;10.30;71.90
8099;DHT22;4092;47.876;9.372;2023-04-06T16:16:43;10.30;73.40